Time;durP1;ratioP1;P1;durP2;ratioP2;P2;SDS_P1;SDS_P2;PMS_P1;PMS_P2;Temp;Humidity;BMP_temperature;BMP_pressure;BME280_temperature;BME280_humidity;BME280_pressure;Samples;Min_cycle;Max_cycle;Signal;HPM_P1;HPM_P2
2023/04/23 00:00:57;;;;;;;4.05;1.90;;;10.60;99.90;;;;;;2064399;28;20357;-69
2023/04/23 00:01:59;;;;;;;2.45;2.25;;;10.50;99.90;;;;;;2051961;28;20232;-70
2023/04/23 00:03:11;;;;;;;6.32;3.80;;;10.50;99.90;;;;;;2060060;28;20237;-68
2023/04/23 00:04:15;;;;;;;5.95;5.47;;;10.50;99.90;;;;;;2070624;28;20217;-69
2023/04/23 00:05:16;;;;;;;5.07;4.63;;;10.40;99.90;;;;;;2068330;28;20271;-69
2023/04/23 00:06:17;;;;;;;2.83;1.90;;;10.40;99.90;;;;;;2071687;28;20277;-71
2023/04/23 00:07:20;;;;;;;2.75;1.88;;;10.30;99.90;;;;;;2063676;28;20423;-69
2023/04/23 00:08:22;;;;;;;2.08;1.80;;;10.30;99.90;;;;;;2047529;28;20241;-68
2023/04/23 00:09:25;;;;;;;3.65;3.33;;;10.30;99.90;;;;;;2055341;28;20234;-68
2023/04/23 00:10:26;;;;;;;3.63;1.80;;;10.30;99.90;;;;;;2063289;28;20296;-70
2023/04/23 00:11:28;;;;;;;5.13;1.80;;;10.30;99.90;;;;;;2055971;28;20253;-69
2023/04/23 00:12:29;;;;;;;3.67;3.38;;;10.30;99.90;;;;;;2071493;28;20328;-70
2023/04/23 00:13:30;;;;;;;3.15;1.50;;;10.20;99.90;;;;;;2071450;28;20766;-69
2023/04/23 00:14:31;;;;;;;3.45;2.20;;;10.20;99.90;;;;;;2062524;28;20238;-69
2023/04/23 00:15:32;;;;;;;4.10;3.87;;;10.20;99.90;;;;;;2071774;28;20233;-70
2023/04/23 00:16:33;;;;;;;2.67;2.47;;;10.20;99.90;;;;;;2072152;28;20237;-68
2023/04/23 00:17:34;;;;;;;2.15;1.60;;;10.20;99.90;;;;;;2072154;28;20236;-70
2023/04/23 00:18:35;;;;;;;3.10;1.93;;;10.20;99.90;;;;;;2072040;28;20243;-68
2023/04/23 00:19:36;;;;;;;2.33;1.90;;;10.20;99.90;;;;;;2063499;28;20316;-69
2023/04/23 00:20:37;;;;;;;2.17;1.40;;;10.20;99.90;;;;;;2055267;28;20603;-70
2023/04/23 00:21:37;;;;;;;4.97;1.77;;;10.10;99.90;;;;;;2071725;28;20316;-69
2023/04/23 00:22:38;;;;;;;1.60;1.40;;;10.20;99.90;;;;;;2072131;28;20225;-70
2023/04/23 00:23:40;;;;;;;1.60;1.50;;;10.10;99.90;;;;;;2071787;28;20225;-69
2023/04/23 00:24:40;;;;;;;4.22;1.40;;;10.10;99.90;;;;;;2068199;28;20708;-69
2023/04/23 00:25:41;;;;;;;2.30;1.20;;;10.10;99.90;;;;;;2079484;28;20236;-69
2023/04/23 00:26:43;;;;;;;1.83;1.40;;;10.00;99.90;;;;;;2068129;28;20596;-69
2023/04/23 00:27:46;;;;;;;1.27;1.17;;;10.00;99.90;;;;;;2079666;28;20252;-69
2023/04/23 00:28:47;;;;;;;1.10;1.00;;;10.00;99.90;;;;;;2071476;28;20249;-70
2023/04/23 00:29:49;;;;;;;1.20;1.10;;;10.00;99.90;;;;;;2071679;28;20283;-70
2023/04/23 00:30:50;;;;;;;1.00;0.90;;;9.90;99.90;;;;;;2068368;28;20225;-68
2023/04/23 00:31:51;;;;;;;3.15;1.17;;;9.90;99.90;;;;;;2071527;28;20224;-68
2023/04/23 00:32:51;;;;;;;0.90;0.87;;;9.80;99.90;;;;;;2071491;28;20229;-68
2023/04/23 00:33:53;;;;;;;1.97;1.87;;;9.80;99.90;;;;;;2072009;28;20785;-69
2023/04/23 00:34:54;;;;;;;3.92;1.10;;;9.80;99.90;;;;;;2071445;28;20225;-68
2023/04/23 00:35:56;;;;;;;1.35;1.25;;;9.70;99.90;;;;;;2059527;28;20380;-70
2023/04/23 00:36:56;;;;;;;4.15;3.88;;;9.60;99.90;;;;;;2059147;28;20747;-68
2023/04/23 00:37:57;;;;;;;0.90;0.70;;;9.70;99.90;;;;;;2055040;28;20318;-69
2023/04/23 00:38:59;;;;;;;0.80;0.80;;;9.70;99.90;;;;;;2054576;28;20811;-69
2023/04/23 00:40:01;;;;;;;1.08;0.85;;;9.60;99.90;;;;;;2069703;28;20280;-69
2023/04/23 00:41:01;;;;;;;0.80;0.80;;;9.60;99.90;;;;;;2057537;28;20221;-70
2023/04/23 00:42:09;;;;;;;1.87;1.77;;;9.70;99.90;;;;;;2061292;28;20210;-70
2023/04/23 00:43:12;;;;;;;1.10;1.00;;;9.70;99.90;;;;;;2071477;28;20668;-71
2023/04/23 00:44:14;;;;;;;0.73;0.73;;;9.70;99.90;;;;;;2056241;28;20183;-69
2023/04/23 00:45:15;;;;;;;6.93;6.63;;;9.60;99.90;;;;;;2063681;28;20257;-69
2023/04/23 00:46:16;;;;;;;1.83;1.73;;;9.70;99.90;;;;;;2071291;28;20189;-69
2023/04/23 00:47:19;;;;;;;0.80;0.70;;;9.60;99.90;;;;;;2055198;28;20229;-69
2023/04/23 00:48:21;;;;;;;1.00;1.00;;;9.60;99.90;;;;;;2063505;28;20229;-69
2023/04/23 00:49:22;;;;;;;1.83;1.73;;;9.70;99.90;;;;;;2063039;28;20281;-69
2023/04/23 00:50:24;;;;;;;2.20;2.10;;;9.70;99.90;;;;;;2063093;28;20237;-69
2023/04/23 00:51:27;;;;;;;2.10;1.90;;;9.60;99.90;;;;;;2071615;28;20283;-68
2023/04/23 00:52:30;;;;;;;13.60;12.90;;;9.60;99.90;;;;;;2071998;28;20320;-71
2023/04/23 00:53:33;;;;;;;0.80;0.80;;;9.50;99.90;;;;;;2071726;28;20233;-70
2023/04/23 00:54:34;;;;;;;0.63;0.63;;;9.40;99.90;;;;;;2060154;28;20229;-69
2023/04/23 00:55:35;;;;;;;2.30;2.20;;;9.50;99.90;;;;;;2071258;28;20229;-70
2023/04/23 00:56:36;;;;;;;0.60;0.60;;;9.50;99.90;;;;;;2071253;28;20229;-69
2023/04/23 00:57:37;;;;;;;1.00;0.70;;;9.40;99.90;;;;;;2070836;28;20307;-68
2023/04/23 00:58:39;;;;;;;5.68;5.43;;;9.50;99.90;;;;;;2067381;28;20225;-69
2023/04/23 00:59:42;;;;;;;0.70;0.70;;;9.50;99.90;;;;;;2071461;28;20233;-69
2023/04/23 01:00:47;;;;;;;0.70;0.70;;;9.40;99.90;;;;;;2051191;28;20265;-69
2023/04/23 01:01:48;;;;;;;0.60;0.60;;;9.40;99.90;;;;;;2051998;28;20242;-69
2023/04/23 01:02:51;;;;;;;1.03;1.03;;;9.50;99.90;;;;;;2061051;28;20258;-69
2023/04/23 01:03:52;;;;;;;0.60;0.60;;;9.40;99.90;;;;;;2055243;28;20238;-69
2023/04/23 01:04:55;;;;;;;0.60;0.60;;;9.50;99.90;;;;;;2047485;28;20227;-71
2023/04/23 01:05:55;;;;;;;6.00;5.75;;;9.50;99.90;;;;;;2059504;28;20233;-69
2023/04/23 01:06:58;;;;;;;2.20;2.10;;;9.50;99.90;;;;;;2071637;28;20228;-69
2023/04/23 01:07:59;;;;;;;0.60;0.60;;;9.40;99.90;;;;;;2071089;28;20794;-70
2023/04/23 01:09:02;;;;;;;0.60;0.60;;;9.40;99.90;;;;;;2071204;28;20225;-69
2023/04/23 01:10:04;;;;;;;0.70;0.70;;;9.40;99.90;;;;;;2061391;28;20244;-69
2023/04/23 01:11:07;;;;;;;0.93;0.70;;;9.40;99.90;;;;;;2063206;28;20186;-69
2023/04/23 01:12:10;;;;;;;1.10;1.00;;;9.40;99.90;;;;;;2059626;28;20236;-70
2023/04/23 01:13:12;;;;;;;1.05;1.05;;;9.50;99.90;;;;;;2063730;28;20182;-69
2023/04/23 01:14:13;;;;;;;1.13;0.60;;;9.40;99.90;;;;;;2070842;28;20193;-69
2023/04/23 01:15:15;;;;;;;0.70;0.70;;;9.40;99.90;;;;;;2071571;28;20197;-69
2023/04/23 01:16:16;;;;;;;1.00;1.00;;;9.40;99.90;;;;;;2063635;28;20193;-69
2023/04/23 01:17:18;;;;;;;1.77;0.70;;;9.40;99.90;;;;;;2070694;28;20236;-69
2023/04/23 01:18:20;;;;;;;0.90;0.65;;;9.40;99.90;;;;;;2062954;28;20293;-69
2023/04/23 01:19:20;;;;;;;1.63;1.52;;;9.40;99.90;;;;;;2059188;28;20234;-69
2023/04/23 01:20:22;;;;;;;0.70;0.70;;;9.40;99.90;;;;;;2063329;28;20261;-69
2023/04/23 01:21:24;;;;;;;0.80;0.80;;;9.40;99.90;;;;;;2071022;28;20234;-69
2023/04/23 01:22:25;;;;;;;0.73;0.73;;;9.40;99.90;;;;;;2071598;28;20225;-69
2023/04/23 01:23:26;;;;;;;9.30;8.90;;;9.40;99.90;;;;;;2071649;28;20255;-69
2023/04/23 01:24:31;;;;;;;0.63;0.63;;;9.40;99.90;;;;;;2059506;28;20667;-69
2023/04/23 01:25:33;;;;;;;1.15;0.60;;;9.30;99.90;;;;;;2055952;28;20310;-69
2023/04/23 01:26:34;;;;;;;1.55;1.45;;;9.30;99.90;;;;;;2067013;28;20648;-69
2023/04/23 01:27:35;;;;;;;0.60;0.60;;;9.30;99.90;;;;;;2068412;28;20304;-69
2023/04/23 01:28:42;;;;;;;0.60;0.60;;;9.30;99.90;;;;;;2071269;28;20666;-71
2023/04/23 01:29:43;;;;;;;2.38;2.28;;;9.30;99.90;;;;;;2071335;28;20283;-69
2023/04/23 01:30:45;;;;;;;0.97;0.80;;;9.30;99.90;;;;;;2063675;28;20233;-69
2023/04/23 01:31:47;;;;;;;0.80;0.70;;;9.20;99.90;;;;;;2055343;28;20314;-69
2023/04/23 01:32:49;;;;;;;1.92;1.08;;;9.30;99.90;;;;;;2063489;28;20729;-69
2023/04/23 01:33:53;;;;;;;1.30;1.10;;;9.30;99.90;;;;;;2071069;28;20225;-69
2023/04/23 01:34:56;;;;;;;0.63;0.63;;;9.30;99.90;;;;;;2050851;28;20230;-69
2023/04/23 01:35:58;;;;;;;0.77;0.70;;;9.20;99.90;;;;;;2060552;28;20599;-69
2023/04/23 01:37:01;;;;;;;1.45;1.35;;;9.30;99.90;;;;;;2070963;28;20367;-70
2023/04/23 01:38:08;;;;;;;2.80;2.70;;;9.20;99.90;;;;;;2061680;28;20214;-71
2023/04/23 01:39:09;;;;;;;1.08;0.90;;;9.20;99.90;;;;;;2060203;28;20249;-70
2023/04/23 01:40:10;;;;;;;2.60;1.20;;;9.10;99.90;;;;;;2071004;28;20186;-69
2023/04/23 01:41:11;;;;;;;17.20;16.42;;;9.20;99.90;;;;;;2062938;28;20191;-69
2023/04/23 01:42:12;;;;;;;1.03;0.70;;;9.10;99.90;;;;;;2055170;28;20191;-69
2023/04/23 01:43:13;;;;;;;0.70;0.70;;;9.10;99.90;;;;;;2054940;28;20238;-69
2023/04/23 01:44:14;;;;;;;1.17;0.77;;;9.10;99.90;;;;;;2062686;28;20272;-69
2023/04/23 01:45:16;;;;;;;0.70;0.70;;;9.10;99.90;;;;;;2055173;28;20195;-69
2023/04/23 01:46:18;;;;;;;0.70;0.70;;;9.20;99.90;;;;;;2054781;28;20217;-69
2023/04/23 01:47:20;;;;;;;0.98;0.98;;;9.20;99.90;;;;;;2065517;28;20189;-69
2023/04/23 01:48:21;;;;;;;3.83;3.63;;;9.10;99.90;;;;;;2069346;28;20233;-68
2023/04/23 01:49:22;;;;;;;3.80;3.60;;;9.20;99.90;;;;;;2070512;28;20232;-69
2023/04/23 01:50:25;;;;;;;2.88;2.78;;;9.10;99.90;;;;;;2070822;28;20235;-70
2023/04/23 01:51:26;;;;;;;0.70;0.70;;;9.10;99.90;;;;;;2071101;28;20249;-70
2023/04/23 01:52:26;;;;;;;2.00;1.90;;;9.10;99.90;;;;;;2070960;28;20229;-69
2023/04/23 01:53:27;;;;;;;0.80;0.80;;;9.10;99.90;;;;;;2067330;28;21045;-69
2023/04/23 01:54:28;;;;;;;3.73;3.47;;;9.00;99.90;;;;;;2050580;28;20287;-69
2023/04/23 01:55:29;;;;;;;1.90;1.80;;;9.10;99.90;;;;;;2059192;28;20306;-69
2023/04/23 01:56:32;;;;;;;0.80;0.80;;;9.00;99.90;;;;;;2063130;28;20365;-70
2023/04/23 01:57:32;;;;;;;1.48;0.70;;;9.00;99.90;;;;;;2051587;28;20286;-69
2023/04/23 01:58:33;;;;;;;0.60;0.60;;;9.00;99.90;;;;;;2051161;28;20699;-69
2023/04/23 01:59:36;;;;;;;0.60;0.60;;;9.10;99.90;;;;;;2066967;28;20265;-69
2023/04/23 02:00:37;;;;;;;0.60;0.60;;;9.20;99.90;;;;;;2055110;28;20225;-69
2023/04/23 02:01:45;;;;;;;0.50;0.50;;;9.20;99.90;;;;;;2046908;28;20753;-69
2023/04/23 02:02:46;;;;;;;1.55;1.45;;;9.30;99.90;;;;;;2071160;28;20597;-69
2023/04/23 02:03:50;;;;;;;0.70;0.70;;;9.20;99.90;;;;;;2071194;28;20228;-69
2023/04/23 02:04:52;;;;;;;0.60;0.60;;;9.20;99.90;;;;;;2063280;28;20226;-69
2023/04/23 02:05:54;;;;;;;0.80;0.80;;;9.10;99.90;;;;;;2053991;28;20720;-70
2023/04/23 02:06:55;;;;;;;0.73;0.73;;;9.10;99.90;;;;;;2063412;28;20225;-69
2023/04/23 02:07:57;;;;;;;1.52;1.42;;;9.20;99.90;;;;;;2079280;28;20311;-69
2023/04/23 02:08:58;;;;;;;4.47;4.28;;;9.20;99.90;;;;;;2071700;28;20577;-69
2023/04/23 02:09:59;;;;;;;1.43;1.33;;;9.20;99.90;;;;;;2071581;28;20368;-69
2023/04/23 02:11:00;;;;;;;0.60;0.60;;;9.10;99.90;;;;;;2062704;28;20284;-69
2023/04/23 02:12:00;;;;;;;2.20;2.10;;;9.10;99.90;;;;;;2063225;28;20241;-70
2023/04/23 02:13:02;;;;;;;1.20;0.90;;;9.10;99.90;;;;;;2061359;28;20682;-70
2023/04/23 02:14:04;;;;;;;0.57;0.57;;;9.10;99.90;;;;;;2055130;28;21083;-69
2023/04/23 02:15:07;;;;;;;1.02;0.85;;;9.20;99.90;;;;;;2062017;28;20182;-69
2023/04/23 02:16:08;;;;;;;0.82;0.65;;;9.20;99.90;;;;;;2058693;28;20345;-69
2023/04/23 02:17:11;;;;;;;2.03;1.93;;;9.20;99.90;;;;;;2057344;28;20222;-71
2023/04/23 02:18:13;;;;;;;0.70;0.70;;;9.30;99.90;;;;;;2044193;28;20188;-69
2023/04/23 02:19:15;;;;;;;0.65;0.65;;;9.20;99.90;;;;;;2052998;28;20708;-69
2023/04/23 02:20:18;;;;;;;0.70;0.70;;;9.20;99.90;;;;;;2057122;28;20199;-69
2023/04/23 02:21:19;;;;;;;0.80;0.80;;;9.10;99.90;;;;;;2055374;28;20282;-69
2023/04/23 02:22:23;;;;;;;0.60;0.60;;;9.10;99.90;;;;;;2056440;28;20214;-69
2023/04/23 02:23:25;;;;;;;0.77;0.60;;;9.20;99.90;;;;;;2063751;28;20226;-69
2023/04/23 02:24:27;;;;;;;0.60;0.60;;;9.20;99.90;;;;;;2048202;28;20268;-69
2023/04/23 02:25:28;;;;;;;0.73;0.73;;;9.30;99.90;;;;;;2063099;28;20304;-69
2023/04/23 02:26:29;;;;;;;0.60;0.60;;;9.20;99.90;;;;;;2064562;28;20230;-69
2023/04/23 02:27:32;;;;;;;0.70;0.70;;;9.20;99.90;;;;;;2071695;28;20233;-69
2023/04/23 02:28:32;;;;;;;1.58;1.58;;;9.20;99.90;;;;;;2072258;28;20240;-69
2023/04/23 02:29:35;;;;;;;0.77;0.77;;;9.20;99.90;;;;;;2063541;28;20238;-69
2023/04/23 02:30:36;;;;;;;0.73;0.63;;;9.20;99.90;;;;;;2064286;28;20312;-69
2023/04/23 02:31:37;;;;;;;0.52;0.52;;;9.10;99.90;;;;;;2064706;28;20336;-69
2023/04/23 02:32:38;;;;;;;0.80;0.50;;;9.20;99.90;;;;;;2070885;28;20664;-69
2023/04/23 02:33:41;;;;;;;0.80;0.70;;;9.10;99.90;;;;;;2064360;28;20236;-71
2023/04/23 02:34:42;;;;;;;0.57;0.57;;;9.10;99.90;;;;;;2057064;28;20229;-69
2023/04/23 02:35:43;;;;;;;0.40;0.40;;;9.10;99.90;;;;;;2064137;28;20744;-69
2023/04/23 02:36:44;;;;;;;0.70;0.70;;;9.20;99.90;;;;;;2060163;28;20226;-69
2023/04/23 02:37:45;;;;;;;0.70;0.70;;;9.10;99.90;;;;;;2067975;28;20272;-69
2023/04/23 02:38:48;;;;;;;1.30;1.20;;;9.10;99.90;;;;;;2072084;28;20324;-69
2023/04/23 02:39:48;;;;;;;1.33;0.90;;;9.10;99.90;;;;;;2072204;28;20233;-70
2023/04/23 02:40:49;;;;;;;0.70;0.70;;;8.90;99.90;;;;;;2068352;28;20229;-69
2023/04/23 02:41:50;;;;;;;2.03;1.93;;;8.80;99.90;;;;;;2068536;28;20733;-69
2023/04/23 02:42:51;;;;;;;0.47;0.47;;;8.80;99.90;;;;;;2052184;28;20219;-69
2023/04/23 02:43:52;;;;;;;0.50;0.50;;;8.80;99.90;;;;;;2064385;28;20232;-68
2023/04/23 02:44:53;;;;;;;0.70;0.70;;;8.70;99.90;;;;;;2079126;28;20244;-69
2023/04/23 02:45:53;;;;;;;0.95;0.95;;;8.70;99.90;;;;;;2073012;28;20236;-69
2023/04/23 02:46:56;;;;;;;1.20;1.20;;;8.70;99.90;;;;;;2073046;28;20229;-69
2023/04/23 02:47:57;;;;;;;0.50;0.50;;;8.80;99.90;;;;;;2068724;28;20316;-69
2023/04/23 02:48:58;;;;;;;0.60;0.60;;;8.80;99.90;;;;;;2072062;28;20229;-69
2023/04/23 02:50:01;;;;;;;0.53;0.53;;;8.80;99.90;;;;;;2072918;28;20670;-69
2023/04/23 02:51:02;;;;;;;0.70;0.70;;;8.90;99.90;;;;;;2071356;28;20255;-69
2023/04/23 02:52:06;;;;;;;1.33;1.33;;;8.90;99.90;;;;;;2072432;28;20202;-69
2023/04/23 02:53:08;;;;;;;0.60;0.60;;;8.90;99.90;;;;;;2064228;28;20656;-69
2023/04/23 02:54:10;;;;;;;0.50;0.50;;;8.80;99.90;;;;;;2072220;28;20226;-69
2023/04/23 02:55:11;;;;;;;1.20;0.82;;;8.80;99.90;;;;;;2072086;28;20186;-69
2023/04/23 02:56:12;;;;;;;3.90;3.75;;;8.80;99.90;;;;;;2071985;28;20193;-69
2023/04/23 02:57:15;;;;;;;1.37;1.30;;;8.80;99.90;;;;;;2071835;28;20216;-69
2023/04/23 02:58:16;;;;;;;1.92;1.83;;;8.70;99.90;;;;;;2071886;28;20210;-69
2023/04/23 02:59:17;;;;;;;2.60;2.50;;;8.70;99.90;;;;;;2064626;28;20202;-68
2023/04/23 03:00:18;;;;;;;0.50;0.50;;;8.70;99.90;;;;;;2072382;28;20201;-69
2023/04/23 03:01:19;;;;;;;0.60;0.60;;;8.60;99.90;;;;;;2072095;28;20284;-69
2023/04/23 03:02:20;;;;;;;1.97;1.87;;;8.60;99.90;;;;;;2070106;28;20197;-69
2023/04/23 03:03:25;;;;;;;0.90;0.80;;;8.60;99.90;;;;;;2068457;28;20264;-69
2023/04/23 03:04:26;;;;;;;0.50;0.50;;;8.60;99.90;;;;;;2072163;28;20241;-68
2023/04/23 03:05:27;;;;;;;2.00;1.92;;;8.60;99.90;;;;;;2072863;28;20260;-68
2023/04/23 03:06:30;;;;;;;0.40;0.40;;;8.70;99.90;;;;;;2071843;28;20287;-69
2023/04/23 03:07:31;;;;;;;1.00;0.68;;;8.70;99.90;;;;;;2064204;28;20237;-69
2023/04/23 03:08:32;;;;;;;0.75;0.75;;;8.70;99.90;;;;;;2072071;28;20221;-68
2023/04/23 03:09:33;;;;;;;3.73;3.57;;;8.60;99.90;;;;;;2073064;28;20237;-69
2023/04/23 03:10:34;;;;;;;1.90;1.80;;;8.60;99.90;;;;;;2072124;28;20719;-68
2023/04/23 03:11:34;;;;;;;1.50;1.50;;;8.60;99.90;;;;;;2064016;28;20320;-69
2023/04/23 03:12:36;;;;;;;0.63;0.63;;;8.60;99.90;;;;;;2060173;28;20230;-68
2023/04/23 03:13:37;;;;;;;0.50;0.50;;;8.60;99.90;;;;;;2072254;28;20236;-69
2023/04/23 03:14:38;;;;;;;0.60;0.60;;;8.60;99.90;;;;;;2072061;28;20313;-69
2023/04/23 03:15:40;;;;;;;0.40;0.40;;;8.70;99.90;;;;;;2072132;28;20324;-68
2023/04/23 03:16:42;;;;;;;1.50;1.40;;;8.70;99.90;;;;;;2071880;28;20248;-69
2023/04/23 03:17:43;;;;;;;0.60;0.60;;;8.70;99.90;;;;;;2066065;28;20724;-67
2023/04/23 03:18:43;;;;;;;2.50;0.70;;;8.70;99.90;;;;;;2043985;29;20237;-67
2023/04/23 03:19:44;;;;;;;1.37;0.70;;;8.60;99.90;;;;;;2057764;28;20919;-67
2023/04/23 03:20:45;;;;;;;0.70;0.70;;;8.70;99.90;;;;;;2059860;28;20245;-68
2023/04/23 03:21:46;;;;;;;0.70;0.70;;;8.70;99.90;;;;;;2059887;28;20285;-68
2023/04/23 03:22:46;;;;;;;0.60;0.60;;;8.70;99.90;;;;;;2071717;28;20669;-68
2023/04/23 03:23:47;;;;;;;0.50;0.50;;;8.60;99.90;;;;;;2064167;28;20235;-68
2023/04/23 03:24:47;;;;;;;0.50;0.50;;;8.60;99.90;;;;;;2067630;28;20224;-67
2023/04/23 03:25:49;;;;;;;2.60;1.60;;;8.70;99.90;;;;;;2071727;28;20732;-67
2023/04/23 03:26:49;;;;;;;0.50;0.50;;;8.70;99.90;;;;;;2067953;28;20308;-67
2023/04/23 03:27:51;;;;;;;0.73;0.57;;;8.70;99.90;;;;;;2072281;28;20236;-67
2023/04/23 03:28:51;;;;;;;0.80;0.80;;;8.70;99.90;;;;;;2071602;28;20311;-67
2023/04/23 03:29:52;;;;;;;0.60;0.60;;;8.70;99.90;;;;;;2072161;28;20229;-67
2023/04/23 03:30:53;;;;;;;0.70;0.70;;;8.70;99.90;;;;;;2072491;28;20231;-70
2023/04/23 03:31:53;;;;;;;0.70;0.60;;;8.70;99.90;;;;;;2072088;28;20224;-68
2023/04/23 03:32:55;;;;;;;0.97;0.80;;;8.70;99.90;;;;;;2070551;28;20218;-68
2023/04/23 03:33:56;;;;;;;0.50;0.50;;;8.70;99.90;;;;;;2060146;28;20226;-67
2023/04/23 03:34:57;;;;;;;0.50;0.50;;;8.70;99.90;;;;;;2071814;28;20300;-68
2023/04/23 03:35:59;;;;;;;0.87;0.60;;;8.70;99.90;;;;;;2079994;28;20239;-68
2023/04/23 03:37:00;;;;;;;0.52;0.52;;;8.70;99.90;;;;;;2071151;28;20232;-67
2023/04/23 03:38:02;;;;;;;0.80;0.80;;;8.70;99.90;;;;;;2071094;28;20304;-70
2023/04/23 03:39:04;;;;;;;0.52;0.52;;;8.80;99.90;;;;;;2071717;28;20201;-67
2023/04/23 03:40:07;;;;;;;0.50;0.50;;;8.80;99.90;;;;;;2071556;28;20216;-68
2023/04/23 03:41:08;;;;;;;0.80;0.50;;;8.80;99.90;;;;;;2063964;28;20530;-68
2023/04/23 03:42:09;;;;;;;0.40;0.40;;;8.90;99.90;;;;;;2062587;28;20201;-67
2023/04/23 03:43:11;;;;;;;2.20;1.40;;;8.90;99.90;;;;;;2051876;28;20205;-67
2023/04/23 03:44:12;;;;;;;0.50;0.50;;;8.90;99.90;;;;;;2052048;28;20283;-68
2023/04/23 03:45:14;;;;;;;0.97;0.70;;;9.00;99.90;;;;;;2064181;28;20193;-67
2023/04/23 03:46:15;;;;;;;1.25;0.50;;;9.10;99.90;;;;;;2050603;28;20276;-68
2023/04/23 03:47:19;;;;;;;1.50;0.70;;;9.00;99.90;;;;;;2040042;28;20187;-68
2023/04/23 03:48:20;;;;;;;0.60;0.60;;;9.00;99.90;;;;;;2063661;28;20210;-68
2023/04/23 03:49:21;;;;;;;0.73;0.73;;;9.00;99.90;;;;;;2063456;28;20331;-68
2023/04/23 03:50:22;;;;;;;1.17;1.17;;;8.90;99.90;;;;;;2063494;28;20230;-68
2023/04/23 03:51:23;;;;;;;2.03;0.63;;;8.90;99.90;;;;;;2063043;28;20270;-68
2023/04/23 03:52:25;;;;;;;0.70;0.70;;;8.70;99.90;;;;;;2051673;28;20231;-68
2023/04/23 03:53:25;;;;;;;0.70;0.60;;;8.80;99.90;;;;;;2055383;28;21125;-68
2023/04/23 03:54:27;;;;;;;0.60;0.60;;;8.70;99.90;;;;;;2050173;28;20227;-68
2023/04/23 03:55:27;;;;;;;2.08;0.70;;;8.80;99.90;;;;;;2055252;28;20691;-69
2023/04/23 03:56:28;;;;;;;0.60;0.60;;;8.90;99.90;;;;;;2055323;28;20237;-68
2023/04/23 03:57:30;;;;;;;1.23;0.60;;;8.90;99.90;;;;;;2063472;28;20262;-69
2023/04/23 03:58:31;;;;;;;0.98;0.85;;;9.00;99.90;;;;;;2064029;28;20291;-68
2023/04/23 03:59:32;;;;;;;0.75;0.75;;;9.00;99.90;;;;;;2062884;28;20234;-68
2023/04/23 04:00:33;;;;;;;1.10;1.00;;;8.90;99.90;;;;;;2059499;28;20294;-67
2023/04/23 04:01:35;;;;;;;2.28;2.17;;;8.90;99.90;;;;;;2059696;28;20315;-68
2023/04/23 04:02:36;;;;;;;0.65;0.65;;;8.80;99.90;;;;;;2063845;28;21059;-67
2023/04/23 04:03:36;;;;;;;1.75;1.00;;;8.80;99.90;;;;;;2064147;28;20244;-68
2023/04/23 04:04:37;;;;;;;2.90;0.77;;;8.80;99.90;;;;;;2063507;28;20321;-69
2023/04/23 04:05:38;;;;;;;0.90;0.70;;;8.80;99.90;;;;;;2051803;28;20254;-69
2023/04/23 04:06:40;;;;;;;1.03;0.80;;;8.80;99.90;;;;;;2043237;28;20238;-68
2023/04/23 04:07:42;;;;;;;1.10;0.80;;;8.90;99.90;;;;;;2054860;28;20614;-68
2023/04/23 04:08:42;;;;;;;0.77;0.77;;;8.90;99.90;;;;;;2063132;28;20273;-68
2023/04/23 04:09:43;;;;;;;0.80;0.63;;;8.90;99.90;;;;;;2069627;28;20307;-67
2023/04/23 04:10:44;;;;;;;0.88;0.70;;;8.90;99.90;;;;;;2060608;28;20305;-67
2023/04/23 04:11:45;;;;;;;0.65;0.65;;;8.90;99.90;;;;;;2059602;28;20270;-67
2023/04/23 04:12:46;;;;;;;0.93;0.73;;;8.90;99.90;;;;;;2063875;28;20235;-67
2023/04/23 04:13:47;;;;;;;0.70;0.70;;;8.90;99.90;;;;;;2063730;28;20726;-67
2023/04/23 04:14:48;;;;;;;0.70;0.70;;;8.90;99.90;;;;;;2051709;28;20240;-67
2023/04/23 04:15:49;;;;;;;0.83;0.80;;;9.00;99.90;;;;;;2051428;28;20234;-67
2023/04/23 04:16:50;;;;;;;0.70;0.70;;;9.00;99.90;;;;;;2063255;28;20229;-67
2023/04/23 04:17:50;;;;;;;1.50;0.63;;;9.00;99.90;;;;;;2061519;28;20250;-67
2023/04/23 04:18:53;;;;;;;1.33;0.80;;;9.00;99.90;;;;;;2062836;28;20233;-67
2023/04/23 04:19:53;;;;;;;0.70;0.70;;;9.00;99.90;;;;;;2063230;28;20225;-67
2023/04/23 04:20:54;;;;;;;0.93;0.80;;;9.00;99.90;;;;;;2059000;28;20222;-68
2023/04/23 04:21:55;;;;;;;0.83;0.80;;;9.10;99.90;;;;;;2067794;28;20686;-68
2023/04/23 04:22:56;;;;;;;0.67;0.67;;;9.00;99.90;;;;;;2063842;28;20305;-68
2023/04/23 04:23:56;;;;;;;0.73;0.60;;;9.00;99.90;;;;;;2071603;28;20252;-68
2023/04/23 04:24:57;;;;;;;0.60;0.60;;;8.90;99.90;;;;;;2072010;28;20252;-68
2023/04/23 04:25:58;;;;;;;1.10;0.70;;;9.00;99.90;;;;;;2071261;28;20229;-68
2023/04/23 04:27:00;;;;;;;0.85;0.70;;;9.00;99.90;;;;;;2071624;28;20241;-68
2023/04/23 04:28:02;;;;;;;0.50;0.50;;;9.10;99.90;;;;;;2056639;28;20723;-68
2023/04/23 04:29:04;;;;;;;1.75;1.02;;;9.10;99.90;;;;;;2047518;28;20251;-68
2023/04/23 04:30:06;;;;;;;0.85;0.70;;;9.10;99.90;;;;;;2052046;28;20654;-67
2023/04/23 04:31:07;;;;;;;0.60;0.60;;;9.00;99.90;;;;;;2052194;28;20756;-68
2023/04/23 04:32:12;;;;;;;0.95;0.70;;;9.00;99.90;;;;;;2063415;28;20190;-68
2023/04/23 04:33:13;;;;;;;2.25;0.70;;;9.00;99.90;;;;;;2064199;28;20201;-68
2023/04/23 04:34:14;;;;;;;0.90;0.60;;;9.00;99.90;;;;;;2063741;28;20544;-68
2023/04/23 04:35:16;;;;;;;1.80;0.70;;;9.10;99.90;;;;;;2051534;28;20216;-68
2023/04/23 04:36:17;;;;;;;0.75;0.75;;;9.20;99.90;;;;;;2036076;28;20205;-68
2023/04/23 04:37:19;;;;;;;1.20;1.15;;;9.20;99.90;;;;;;2037989;28;20579;-69
2023/04/23 04:38:21;;;;;;;1.83;0.93;;;9.20;99.90;;;;;;2059619;28;20207;-68
2023/04/23 04:39:21;;;;;;;1.65;0.70;;;9.20;99.90;;;;;;2063685;28;20248;-68
2023/04/23 04:40:22;;;;;;;0.97;0.70;;;9.30;99.90;;;;;;2071272;28;20232;-67
2023/04/23 04:41:27;;;;;;;0.77;0.75;;;9.40;99.90;;;;;;2055292;28;20288;-68
2023/04/23 04:42:28;;;;;;;3.25;0.80;;;9.30;99.90;;;;;;2056457;28;20306;-69
2023/04/23 04:43:31;;;;;;;3.47;0.80;;;9.30;99.90;;;;;;2055814;28;20242;-68
2023/04/23 04:44:32;;;;;;;0.60;0.60;;;9.30;99.90;;;;;;2073530;28;20236;-68
2023/04/23 04:45:32;;;;;;;0.80;0.70;;;9.40;99.90;;;;;;2074567;28;20221;-68
2023/04/23 04:46:39;;;;;;;1.33;0.70;;;9.40;99.90;;;;;;2074958;28;20253;-68
2023/04/23 04:47:40;;;;;;;0.70;0.70;;;9.40;99.90;;;;;;2073703;28;20279;-68
2023/04/23 04:48:41;;;;;;;2.85;0.80;;;9.40;99.90;;;;;;2073574;28;20229;-68
2023/04/23 04:49:45;;;;;;;1.80;0.70;;;9.30;99.90;;;;;;2072071;28;20317;-68
2023/04/23 04:50:48;;;;;;;1.17;0.65;;;9.40;99.90;;;;;;2074524;28;20226;-70
2023/04/23 04:51:50;;;;;;;1.15;0.82;;;9.40;99.90;;;;;;2057945;28;20306;-68
2023/04/23 04:52:51;;;;;;;1.52;0.90;;;9.30;99.90;;;;;;2042359;28;20231;-68
2023/04/23 04:53:52;;;;;;;0.93;0.88;;;9.40;99.90;;;;;;2064976;28;20234;-68
2023/04/23 04:54:53;;;;;;;1.60;1.30;;;9.40;99.90;;;;;;2074592;28;20236;-68
2023/04/23 04:55:53;;;;;;;1.33;0.83;;;9.40;99.90;;;;;;2065862;28;20233;-67
2023/04/23 04:56:54;;;;;;;1.33;0.70;;;9.40;99.90;;;;;;2066199;28;20743;-68
2023/04/23 04:57:55;;;;;;;2.10;0.70;;;9.40;99.90;;;;;;2069373;28;20312;-68
2023/04/23 04:58:56;;;;;;;0.80;0.70;;;9.40;99.90;;;;;;2064208;28;20222;-68
2023/04/23 04:59:56;;;;;;;0.90;0.60;;;9.40;99.90;;;;;;2063581;28;20226;-68
2023/04/23 05:00:58;;;;;;;1.80;0.77;;;9.40;99.90;;;;;;2071602;28;20683;-68
2023/04/23 05:01:59;;;;;;;0.70;0.68;;;9.50;99.90;;;;;;2063608;28;20237;-68
2023/04/23 05:03:00;;;;;;;1.17;0.90;;;9.40;99.90;;;;;;2050168;28;20751;-69
2023/04/23 05:04:00;;;;;;;1.10;1.00;;;9.40;99.90;;;;;;2043257;28;20257;-69
2023/04/23 05:05:01;;;;;;;1.73;1.00;;;9.40;99.90;;;;;;2050810;28;20222;-68
2023/04/23 05:06:05;;;;;;;0.63;0.60;;;9.50;99.90;;;;;;2071411;28;20260;-69
2023/04/23 05:07:05;;;;;;;0.70;0.70;;;9.60;99.90;;;;;;2071385;28;20198;-68
2023/04/23 05:08:07;;;;;;;1.00;0.70;;;9.70;99.90;;;;;;2067242;28;20190;-68
2023/04/23 05:09:09;;;;;;;1.17;0.80;;;9.70;99.90;;;;;;2067158;28;20358;-69
2023/04/23 05:10:12;;;;;;;1.02;0.98;;;9.70;99.90;;;;;;2063155;28;20285;-69
2023/04/23 05:11:15;;;;;;;2.35;0.98;;;9.80;99.90;;;;;;2052546;28;20198;-69
2023/04/23 05:12:17;;;;;;;1.10;0.95;;;9.80;99.90;;;;;;2063395;28;20202;-68
2023/04/23 05:13:18;;;;;;;1.23;0.70;;;9.90;99.90;;;;;;2070798;28;20205;-69
2023/04/23 05:14:19;;;;;;;0.70;0.70;;;10.00;99.90;;;;;;2063243;28;20201;-68
2023/04/23 05:15:20;;;;;;;1.60;0.87;;;10.00;99.90;;;;;;2063581;28;20198;-69
2023/04/23 05:16:20;;;;;;;0.73;0.73;;;10.10;99.90;;;;;;2065461;28;20365;-70
2023/04/23 05:17:21;;;;;;;1.90;0.97;;;10.00;99.90;;;;;;2075099;28;20730;-68
2023/04/23 05:18:23;;;;;;;0.90;0.80;;;9.90;99.90;;;;;;2079380;28;20298;-71
2023/04/23 05:19:24;;;;;;;0.98;0.80;;;9.90;99.90;;;;;;2068575;28;20233;-69
2023/04/23 05:20:26;;;;;;;0.80;0.80;;;10.00;99.90;;;;;;2062833;28;20284;-68
2023/04/23 05:21:26;;;;;;;0.95;0.95;;;9.90;99.90;;;;;;2059866;28;20776;-68
2023/04/23 05:22:28;;;;;;;1.47;0.90;;;10.00;99.90;;;;;;2061398;28;20234;-69
2023/04/23 05:23:30;;;;;;;0.70;0.70;;;9.90;99.90;;;;;;2063557;28;20300;-68
2023/04/23 05:24:31;;;;;;;0.73;0.73;;;9.90;99.90;;;;;;2062995;28;20373;-69